Time;durP1;ratioP1;P1;durP2;ratioP2;P2;SDS_P1;SDS_P2;PMS_P1;PMS_P2;Temp;Humidity;BMP_temperature;BMP_pressure;BME280_temperature;BME280_humidity;BME280_pressure;Samples;Min_cycle;Max_cycle;Signal;HPM_P1;HPM_P2
2021/06/08 00:00:50;;;;;;;0.10;0.10;;;;;;;15.48;86.75;102445.06;10579229;28;20028;-60
2021/06/08 00:05:51;;;;;;;0.10;0.10;;;;;;;15.46;87.30;102443.53;10579291;28;20023;-61
2021/06/08 00:10:51;;;;;;;0.10;0.10;;;;;;;15.42;87.35;102437.63;10564096;28;20111;-60
2021/06/08 00:15:51;;;;;;;0.10;0.10;;;;;;;15.36;87.43;102431.00;10553376;28;20819;-59
2021/06/08 00:20:52;;;;;;;0.10;0.10;;;;;;;15.32;87.51;102439.50;10564918;28;20038;-60
2021/06/08 00:25:52;;;;;;;0.10;0.10;;;;;;;15.26;87.68;102438.28;10578251;28;20390;-60
2021/06/08 00:30:53;;;;;;;0.10;0.10;;;;;;;15.22;87.52;102444.94;10578509;28;20261;-62
2021/06/08 00:35:54;;;;;;;0.10;0.10;;;;;;;15.20;87.55;102441.56;10578059;28;20431;-60
2021/06/08 00:40:55;;;;;;;0.10;0.10;;;;;;;15.20;87.19;102449.63;10577589;28;20088;-63
2021/06/08 00:45:55;;;;;;;0.10;0.10;;;;;;;15.18;87.18;102446.22;10561925;28;20482;-62
2021/06/08 00:50:56;;;;;;;0.10;0.10;;;;;;;15.16;87.48;102442.88;10570284;28;20393;-62
2021/06/08 00:55:56;;;;;;;0.10;0.10;;;;;;;15.09;87.21;102434.53;10577251;28;20533;-62
2021/06/08 01:00:56;;;;;;;0.10;0.10;;;;;;;15.06;87.43;102432.16;10558777;28;20081;-58
2021/06/08 01:05:56;;;;;;;0.10;0.10;;;;;;;15.01;87.22;102439.84;10533581;28;20008;-61
2021/06/08 01:10:57;;;;;;;0.10;0.10;;;;;;;14.98;87.92;102444.63;10537486;28;20040;-61
2021/06/08 01:15:57;;;;;;;0.10;0.10;;;;;;;14.92;87.81;102449.63;10539529;28;20012;-62
2021/06/08 01:21:06;;;;;;;0.10;0.10;;;;;;;14.88;87.53;102440.16;10571840;28;20028;-61
2021/06/08 01:26:07;;;;;;;0.10;0.10;;;;;;;14.83;88.19;102439.75;10576025;28;20087;-61
2021/06/08 01:36:15;;;;;;;0.10;0.10;;;;;;;14.81;88.11;102439.09;10551833;27;20681;-62
2021/06/08 01:41:18;;;;;;;0.10;0.10;;;;;;;14.78;87.98;102447.44;10513387;28;20035;-62
2021/06/08 01:46:21;;;;;;;0.10;0.10;;;;;;;14.80;87.71;102439.22;10508218;28;20035;-63
2021/06/08 01:51:29;;;;;;;0.10;0.10;;;;;;;14.79;87.66;102449.09;10477404;28;20027;-62
2021/06/08 01:56:32;;;;;;;0.10;0.10;;;;;;;14.79;87.45;102450.94;10523913;28;20012;-63
2021/06/08 02:01:59;;;;;;;0.10;0.10;;;;;;;14.78;87.48;102452.78;10487626;28;20036;-62
2021/06/08 02:07:08;;;;;;;0.10;0.10;;;;;;;14.76;87.20;102449.41;10503974;28;20023;-62
2021/06/08 02:12:17;;;;;;;0.10;0.10;;;;;;;14.74;87.26;102448.69;10505791;28;20170;-62
2021/06/08 02:17:24;;;;;;;0.10;0.10;;;;;;;14.73;87.09;102457.75;10488545;28;20016;-60
2021/06/08 02:22:26;;;;;;;0.10;0.10;;;;;;;14.70;86.68;102455.34;10518229;28;20028;-62
2021/06/08 02:27:27;;;;;;;0.10;0.10;;;;;;;14.68;87.14;102457.34;10505477;28;20048;-62
2021/06/08 02:32:29;;;;;;;0.10;0.10;;;;;;;14.62;86.92;102449.88;10504925;28;20055;-62
2021/06/08 02:37:31;;;;;;;0.10;0.10;;;;;;;14.56;87.22;102462.03;10502034;28;20024;-62
2021/06/08 02:42:32;;;;;;;0.10;0.10;;;;;;;14.48;86.32;102462.72;10532565;28;20074;-62
2021/06/08 02:47:34;;;;;;;0.10;0.10;;;;;;;14.39;86.27;102466.25;10505932;28;20031;-62
2021/06/08 02:52:35;;;;;;;0.10;0.10;;;;;;;14.29;86.64;102459.25;10500436;28;20604;-62
2021/06/08 02:57:36;;;;;;;0.10;0.10;;;;;;;14.24;87.12;102465.03;10521832;28;20027;-62
2021/06/08 03:02:40;;;;;;;0.10;0.10;;;;;;;14.21;87.39;102460.78;10517659;28;20054;-62
2021/06/08 03:07:45;;;;;;;0.10;0.10;;;;;;;14.21;87.38;102463.47;10503851;28;20023;-63
2021/06/08 03:12:54;;;;;;;0.10;0.10;;;;;;;14.21;87.54;102462.63;10505433;28;20104;-62
2021/06/08 03:17:55;;;;;;;0.10;0.10;;;;;;;14.22;87.30;102464.31;10497338;28;20450;-63
2021/06/08 03:23:00;;;;;;;0.10;0.10;;;;;;;14.21;86.62;102463.47;10521205;28;20032;-62
2021/06/08 03:28:01;;;;;;;0.10;0.10;;;;;;;14.23;86.97;102468.72;10517877;28;20015;-61
2021/06/08 03:33:02;;;;;;;0.10;0.10;;;;;;;14.25;87.49;102458.66;10526627;28;20025;-61
2021/06/08 03:38:03;;;;;;;0.10;0.10;;;;;;;14.28;87.04;102458.38;10498829;28;20395;-62
2021/06/08 03:43:04;;;;;;;0.13;0.13;;;;;;;14.29;87.16;102464.63;10502576;28;20280;-63
2021/06/08 03:48:05;;;;;;;0.10;0.10;;;;;;;14.31;86.83;102474.19;10521021;28;20038;-63
2021/06/08 03:53:06;;;;;;;0.10;0.10;;;;;;;14.37;86.57;102465.59;10515097;28;20048;-61
2021/06/08 03:58:15;;;;;;;0.10;0.10;;;;;;;14.44;86.23;102472.03;10514492;28;20052;-62
2021/06/08 04:03:17;;;;;;;0.10;0.10;;;;;;;14.54;85.91;102464.00;10490795;28;20024;-62
2021/06/08 04:08:17;;;;;;;0.10;0.10;;;;;;;14.61;86.19;102469.66;10518711;28;20467;-60
2021/06/08 04:13:18;;;;;;;0.05;0.05;;;;;;;14.68;85.94;102462.69;10528217;28;20073;-61
2021/06/08 04:18:20;;;;;;;0.10;0.10;;;;;;;15.11;84.27;102477.34;10528888;28;20417;-63
2021/06/08 04:23:25;;;;;;;0.10;0.10;;;;;;;15.40;82.98;102456.56;10530110;28;20032;-64
2021/06/08 04:28:26;;;;;;;0.10;0.10;;;;;;;15.44;82.93;102467.00;10522184;28;20501;-61
2021/06/08 04:33:29;;;;;;;0.00;0.00;;;;;;;16.16;80.73;102468.72;10519560;28;20052;-61
2021/06/08 04:38:29;;;;;;;0.10;0.10;;;;;;;16.73;78.41;102461.03;10526227;28;20012;-61
2021/06/08 04:43:29;;;;;;;0.10;0.10;;;;;;;16.67;78.31;102461.69;10524229;28;20030;-61
2021/06/08 04:48:30;;;;;;;0.10;0.10;;;;;;;16.67;77.68;102467.06;10525197;28;20020;-62
2021/06/08 04:53:30;;;;;;;0.10;0.10;;;;;;;16.80;77.05;102466.63;10511752;28;20024;-64
2021/06/08 04:58:31;;;;;;;0.10;0.10;;;;;;;16.58;77.19;102473.41;10514421;28;20471;-64
2021/06/08 05:03:41;;;;;;;0.10;0.10;;;;;;;16.52;78.13;102469.50;10514736;28;20491;-62
2021/06/08 05:08:50;;;;;;;0.10;0.10;;;;;;;16.39;77.86;102477.13;10518523;28;20371;-62
2021/06/08 05:13:52;;;;;;;0.10;0.10;;;;;;;16.28;78.48;102475.53;10515410;28;20029;-62
2021/06/08 05:18:54;;;;;;;0.10;0.10;;;;;;;16.20;78.55;102475.47;10526210;28;20047;-62
2021/06/08 05:23:55;;;;;;;0.10;0.10;;;;;;;16.23;79.17;102475.16;10518303;28;20028;-61
2021/06/08 05:28:56;;;;;;;0.10;0.10;;;;;;;16.33;79.31;102479.59;10528802;28;20020;-63
2021/06/08 05:33:58;;;;;;;0.10;0.10;;;;;;;16.78;77.33;102489.31;10503162;28;20394;-62
2021/06/08 05:38:59;;;;;;;0.10;0.10;;;;;;;16.73;76.76;102479.03;10516476;28;20051;-62
2021/06/08 05:43:59;;;;;;;0.10;0.10;;;;;;;16.90;76.79;102483.53;10502251;28;20064;-62
2021/06/08 05:49:01;;;;;;;0.10;0.10;;;;;;;17.22;75.73;102482.00;10510472;28;20024;-62
2021/06/08 05:54:04;;;;;;;0.00;0.00;;;;;;;17.19;75.33;102485.84;10507270;28;20111;-62
2021/06/08 05:59:06;;;;;;;0.10;0.10;;;;;;;17.16;75.80;102477.22;10509845;28;20016;-62
2021/06/08 06:04:11;;;;;;;0.10;0.10;;;;;;;17.05;76.10;102475.69;10482939;28;20521;-63
2021/06/08 06:09:12;;;;;;;0.10;0.10;;;;;;;17.05;76.75;102486.47;10513380;28;20024;-63
2021/06/08 06:14:16;;;;;;;0.10;0.10;;;;;;;17.06;75.93;102488.13;10510985;28;20024;-62
2021/06/08 06:19:16;;;;;;;0.10;0.10;;;;;;;17.06;77.04;102490.00;10525944;28;20346;-62
2021/06/08 06:24:17;;;;;;;0.10;0.10;;;;;;;17.09;75.59;102492.34;10491117;28;20118;-62
2021/06/08 06:29:18;;;;;;;0.10;0.10;;;;;;;16.94;76.45;102497.50;10499405;28;20387;-63
2021/06/08 06:34:22;;;;;;;0.00;0.00;;;;;;;16.93;76.56;102495.81;10486872;28;20029;-62
2021/06/08 06:39:27;;;;;;;0.10;0.10;;;;;;;16.98;77.06;102494.31;10490814;28;20098;-61
2021/06/08 06:44:28;;;;;;;0.10;0.10;;;;;;;17.12;77.56;102497.41;10492900;28;20090;-62
2021/06/08 06:49:28;;;;;;;0.10;0.10;;;;;;;17.37;76.92;102501.88;10492533;28;20062;-63
2021/06/08 06:54:30;;;;;;;0.10;0.10;;;;;;;17.60;75.86;102512.91;10497673;28;20055;-63
2021/06/08 06:59:32;;;;;;;0.10;0.10;;;;;;;17.94;73.92;102517.38;10521798;28;20370;-62
2021/06/08 07:04:34;;;;;;;0.10;0.10;;;;;;;18.24;74.15;102507.78;10515412;28;20112;-63
2021/06/08 07:09:34;;;;;;;0.10;0.10;;;;;;;18.41;72.98;102511.28;10533570;28;20026;-63
2021/06/08 07:14:35;;;;;;;0.10;0.10;;;;;;;18.58;72.18;102516.69;10533406;28;20107;-63
2021/06/08 07:19:37;;;;;;;0.10;0.10;;;;;;;18.94;71.04;102514.47;10533374;28;20497;-63
2021/06/08 07:24:43;;;;;;;0.10;0.10;;;;;;;20.23;67.24;102508.50;10526668;28;20020;-63
2021/06/08 07:29:44;;;;;;;0.10;0.10;;;;;;;20.64;66.54;102510.84;10491231;28;20026;-63
2021/06/08 07:34:49;;;;;;;0.10;0.10;;;;;;;20.84;65.10;102504.88;10548138;22;20470;-65
2021/06/08 07:39:53;;;;;;;0.10;0.10;;;;;;;21.72;63.27;102497.66;10514879;28;20066;-65
2021/06/08 07:45:08;;;;;;;0.10;0.10;;;;;;;21.99;60.98;102507.75;10533346;28;20032;-65
2021/06/08 07:50:09;;;;;;;0.10;0.10;;;;;;;22.22;60.58;102512.13;10533290;28;20038;-65
2021/06/08 07:55:11;;;;;;;0.10;0.10;;;;;;;22.24;60.65;102507.38;10549215;28;20024;-65
2021/06/08 08:00:13;;;;;;;0.10;0.10;;;;;;;21.82;60.05;102512.59;10572649;28;20103;-65
2021/06/08 08:05:17;;;;;;;0.10;0.10;;;;;;;21.77;62.58;102506.06;10603228;28;20538;-65
2021/06/08 08:10:21;;;;;;;0.10;0.10;;;;;;;23.90;56.01;102509.06;10577070;27;20027;-65
2021/06/08 08:15:21;;;;;;;0.10;0.10;;;;;;;25.05;56.02;102504.16;10552836;28;20028;-65
2021/06/08 08:20:40;;;;;;;0.10;0.10;;;;;;;26.22;51.81;102500.38;10567874;28;20389;-65
2021/06/08 08:25:40;;;;;;;0.10;0.10;;;;;;;26.23;47.26;102491.94;10575320;28;20258;-66
2021/06/08 08:30:41;;;;;;;0.10;0.10;;;;;;;25.80;50.15;102487.22;10565917;28;20023;-65
2021/06/08 08:35:42;;;;;;;0.10;0.10;;;;;;;25.41;47.85;102489.13;10566377;28;20032;-65
2021/06/08 08:40:42;;;;;;;0.10;0.10;;;;;;;25.46;51.41;102493.94;10555918;28;20027;-65
2021/06/08 08:45:42;;;;;;;0.10;0.10;;;;;;;25.58;51.65;102484.00;10568399;28;20022;-65
2021/06/08 08:50:43;;;;;;;0.10;0.10;;;;;;;25.48;49.90;102478.19;10565352;28;20051;-65
2021/06/08 08:55:45;;;;;;;0.10;0.10;;;;;;;25.78;49.35;102472.13;10558128;28;20024;-65
2021/06/08 09:00:46;;;;;;;0.10;0.10;;;;;;;26.18;47.98;102473.50;10563786;28;20141;-65
2021/06/08 09:05:46;;;;;;;0.10;0.10;;;;;;;26.30;46.14;102470.88;10561243;28;20045;-65
2021/06/08 09:10:47;;;;;;;0.10;0.10;;;;;;;25.89;48.37;102471.44;10567731;28;20102;-65
2021/06/08 09:15:48;;;;;;;0.10;0.10;;;;;;;25.53;47.87;102473.75;10562058;28;20019;-65
2021/06/08 09:20:48;;;;;;;0.10;0.10;;;;;;;25.38;50.58;102472.38;10561647;27;20031;-65
2021/06/08 09:25:51;;;;;;;0.10;0.10;;;;;;;25.82;48.11;102473.34;10551938;28;20020;-64
2021/06/08 09:31:13;;;;;;;0.00;0.00;;;;;;;26.15;49.92;102467.63;10557053;28;20074;-65
2021/06/08 09:36:16;;;;;;;0.00;0.00;;;;;;;26.47;48.06;102464.81;10562762;28;20066;-65
2021/06/08 09:41:49;;;;;;;0.10;0.10;;;;;;;26.23;45.54;102461.06;10564135;28;20635;-65
2021/06/08 09:46:55;;;;;;;0.10;0.10;;;;;;;25.93;45.64;102459.03;10554085;28;20026;-65
2021/06/08 09:51:59;;;;;;;0.10;0.10;;;;;;;26.37;45.66;102441.59;10550406;28;20031;-65
2021/06/08 09:57:23;;;;;;;0.10;0.10;;;;;;;26.50;45.09;102443.41;10556260;28;20055;-65
2021/06/08 10:02:35;;;;;;;0.10;0.10;;;;;;;26.00;46.76;102448.03;10564724;28;20076;-65
2021/06/08 10:07:35;;;;;;;0.10;0.10;;;;;;;25.77;46.25;102445.88;10555498;28;20509;-65
2021/06/08 10:12:52;;;;;;;0.10;0.10;;;;;;;26.04;49.91;102441.91;10561520;28;20051;-65
2021/06/08 10:18:00;;;;;;;0.10;0.10;;;;;;;25.80;45.44;102434.53;10572225;28;20052;-65
2021/06/08 10:23:16;;;;;;;0.10;0.10;;;;;;;26.03;47.57;102442.97;10594768;27;20365;-65
2021/06/08 10:28:17;;;;;;;0.10;0.10;;;;;;;26.15;43.87;102446.66;10602011;27;20051;-65
2021/06/08 10:33:21;;;;;;;0.10;0.10;;;;;;;25.93;46.98;102437.19;10600762;27;20031;-65
2021/06/08 10:38:24;;;;;;;0.10;0.10;;;;;;;25.88;45.74;102431.56;10619648;27;20030;-65
2021/06/08 10:43:27;;;;;;;0.10;0.10;;;;;;;25.77;46.73;102432.22;10574559;27;20462;-64
2021/06/08 10:48:41;;;;;;;0.10;0.10;;;;;;;25.71;48.65;102423.03;10556520;28;20494;-65
2021/06/08 10:53:47;;;;;;;0.10;0.10;;;;;;;25.95;48.84;102424.16;10563599;28;20077;-66
2021/06/08 10:58:51;;;;;;;0.10;0.10;;;;;;;25.71;45.15;102418.44;10563450;28;20615;-64
2021/06/08 11:03:54;;;;;;;0.10;0.10;;;;;;;25.75;48.53;102419.66;10554218;28;20023;-65
2021/06/08 11:09:12;;;;;;;0.10;0.10;;;;;;;25.77;45.73;102422.16;10549239;28;20012;-65
2021/06/08 11:14:37;;;;;;;0.10;0.10;;;;;;;25.54;46.49;102420.03;10542680;28;20016;-65
2021/06/08 11:19:40;;;;;;;0.10;0.10;;;;;;;25.47;47.29;102416.50;10558369;28;20500;-65
2021/06/08 11:24:43;;;;;;;0.10;0.10;;;;;;;25.75;49.21;102416.94;10558606;28;20098;-65
2021/06/08 11:29:55;;;;;;;0.10;0.10;;;;;;;26.02;48.30;102421.34;10544423;28;20482;-65
2021/06/08 11:35:19;;;;;;;0.10;0.10;;;;;;;25.99;46.17;102411.72;10563838;28;20023;-65
2021/06/08 11:40:38;;;;;;;0.10;0.10;;;;;;;25.85;44.80;102418.34;10544673;28;20106;-65
2021/06/08 11:45:43;;;;;;;0.10;0.10;;;;;;;25.64;44.31;102411.34;10571441;28;20478;-65
2021/06/08 11:50:46;;;;;;;0.10;0.10;;;;;;;25.32;45.01;102415.97;10554384;28;20498;-65
2021/06/08 11:56:06;;;;;;;0.10;0.10;;;;;;;25.66;47.76;102411.97;10543017;28;20023;-65
2021/06/08 12:01:39;;;;;;;0.10;0.10;;;;;;;25.86;47.01;102414.56;10551356;28;20032;-65
2021/06/08 12:07:10;;;;;;;0.10;0.10;;;;;;;25.74;45.35;102408.94;10563436;28;20536;-65
2021/06/08 12:12:16;;;;;;;0.10;0.10;;;;;;;25.70;46.29;102403.09;10563817;28;20059;-65
2021/06/08 12:17:17;;;;;;;0.10;0.10;;;;;;;25.75;42.19;102399.72;10558811;27;20382;-64
2021/06/08 12:22:23;;;;;;;0.10;0.10;;;;;;;25.65;44.46;102392.00;10553137;27;20031;-65
2021/06/08 12:27:41;;;;;;;0.10;0.10;;;;;;;25.68;45.86;102388.84;10570250;28;20031;-65
2021/06/08 12:32:43;;;;;;;0.10;0.10;;;;;;;25.68;45.03;102383.38;10564677;28;20019;-65
2021/06/08 12:37:43;;;;;;;0.10;0.10;;;;;;;25.63;46.76;102383.25;10553711;28;20038;-65
2021/06/08 12:42:44;;;;;;;0.10;0.10;;;;;;;25.48;45.32;102382.69;10558364;28;20020;-65
2021/06/08 12:47:45;;;;;;;0.10;0.10;;;;;;;25.39;44.05;102382.13;10558742;28;20494;-65
2021/06/08 12:52:58;;;;;;;0.10;0.10;;;;;;;25.14;46.47;102373.09;10560343;28;20027;-65
2021/06/08 12:58:03;;;;;;;0.10;0.10;;;;;;;25.11;44.75;102368.88;10561366;28;20062;-65
2021/06/08 13:03:05;;;;;;;0.00;0.00;;;;;;;25.17;45.74;102373.47;10561158;28;20437;-65
2021/06/08 13:08:06;;;;;;;0.10;0.10;;;;;;;25.28;46.18;102369.22;10566340;28;20027;-65
2021/06/08 13:13:12;;;;;;;0.08;0.08;;;;;;;25.37;43.32;102370.63;10560153;28;20621;-65
2021/06/08 13:18:15;;;;;;;0.10;0.10;;;;;;;25.44;44.21;102370.56;10552799;28;20020;-65
2021/06/08 13:23:18;;;;;;;;;;;;;;;25.37;41.82;102367.06;10566590;28;20019;-65
2021/06/08 13:28:39;;;;;;;0.10;0.10;;;;;;;25.43;42.85;102366.19;10555050;28;19908;-65
2021/06/08 13:33:41;;;;;;;0.10;0.10;;;;;;;25.39;43.51;102371.22;10552623;28;20474;-65
2021/06/08 13:38:41;;;;;;;0.10;0.10;;;;;;;25.45;43.40;102364.91;10561219;22;20056;-65
2021/06/08 13:43:45;;;;;;;0.10;0.10;;;;;;;25.33;42.26;102363.09;10518563;28;20035;-65
2021/06/08 13:48:57;;;;;;;0.10;0.10;;;;;;;25.25;43.07;102356.03;10516807;28;20016;-64
2021/06/08 13:54:13;;;;;;;0.08;0.08;;;;;;;25.35;43.77;102350.91;10535186;28;20501;-64
2021/06/08 14:04:47;;;;;;;0.10;0.10;;;;;;;25.18;41.03;102347.03;10532655;28;20028;-64
2021/06/08 14:09:51;;;;;;;0.10;0.10;;;;;;;25.14;41.60;102349.38;10497545;28;20296;-64
2021/06/08 14:15:03;;;;;;;0.10;0.10;;;;;;;25.21;42.83;102333.81;10492233;28;20493;-65
2021/06/08 14:20:04;;;;;;;0.10;0.10;;;;;;;25.28;43.05;102337.34;10491761;28;20016;-63
2021/06/08 14:25:05;;;;;;;0.10;0.10;;;;;;;25.09;42.56;102332.81;10502088;28;20020;-65
2021/06/08 14:30:07;;;;;;;0.10;0.10;;;;;;;25.11;43.67;102332.59;10523240;28;20065;-64
2021/06/08 14:35:08;;;;;;;0.10;0.10;;;;;;;25.10;41.56;102328.19;10532092;28;20024;-64
2021/06/08 14:40:09;;;;;;;0.10;0.10;;;;;;;25.07;41.26;102324.00;10533290;28;20024;-64
2021/06/08 14:45:09;;;;;;;0.10;0.10;;;;;;;24.99;42.90;102325.13;10532571;28;20023;-64
2021/06/08 14:50:10;;;;;;;0.10;0.10;;;;;;;24.88;40.44;102320.38;10527007;28;20544;-64
2021/06/08 14:55:11;;;;;;;0.10;0.10;;;;;;;24.77;39.71;102315.59;10486560;28;20066;-64
2021/06/08 15:00:11;;;;;;;0.10;0.10;;;;;;;24.80;41.24;102312.44;10512069;28;20016;-64
2021/06/08 15:05:14;;;;;;;0.10;0.10;;;;;;;24.84;42.48;102322.69;10528527;28;20020;-64
2021/06/08 15:10:14;;;;;;;0.00;0.00;;;;;;;24.83;40.40;102309.28;10518545;28;20029;-64
2021/06/08 15:15:15;;;;;;;0.10;0.10;;;;;;;24.72;41.45;102316.25;10506525;28;20028;-64
2021/06/08 15:20:15;;;;;;;0.10;0.10;;;;;;;24.57;40.39;102312.97;10486058;28;20028;-64
2021/06/08 15:25:16;;;;;;;0.10;0.10;;;;;;;24.55;41.39;102310.47;10528853;28;20105;-64
2021/06/08 15:30:17;;;;;;;0.10;0.10;;;;;;;24.48;43.94;102320.53;10524984;28;20501;-64
2021/06/08 15:35:22;;;;;;;0.10;0.10;;;;;;;24.47;42.95;102312.59;10520363;28;20528;-64
2021/06/08 15:40:23;;;;;;;0.10;0.10;;;;;;;24.36;44.09;102317.63;10531247;28;20027;-64
2021/06/08 15:45:23;;;;;;;0.10;0.10;;;;;;;24.26;43.03;102309.09;10530240;28;20474;-64
2021/06/08 15:50:24;;;;;;;0.10;0.10;;;;;;;24.12;43.31;102305.56;10531003;28;20020;-64
2021/06/08 15:55:26;;;;;;;0.10;0.10;;;;;;;24.09;43.50;102300.56;10513505;28;20134;-63
2021/06/08 16:00:26;;;;;;;0.10;0.10;;;;;;;24.04;43.71;102305.78;10530718;28;20055;-64
2021/06/08 16:05:27;;;;;;;0.03;0.03;;;;;;;24.03;43.85;102301.41;10531509;28;20020;-64
2021/06/08 16:10:27;;;;;;;0.10;0.10;;;;;;;23.99;44.19;102293.88;10509625;28;20484;-64
2021/06/08 16:15:28;;;;;;;0.10;0.10;;;;;;;23.91;44.52;102297.66;10530789;28;20016;-64
2021/06/08 16:20:28;;;;;;;0.10;0.10;;;;;;;23.87;45.96;102299.13;10522960;28;20165;-64
2021/06/08 16:25:29;;;;;;;0.10;0.10;;;;;;;23.77;46.31;102301.47;10530666;28;20023;-63
2021/06/08 16:30:29;;;;;;;0.10;0.10;;;;;;;23.59;51.16;102293.88;10534803;28;20016;-63
2021/06/08 16:35:29;;;;;;;0.10;0.10;;;;;;;23.49;53.07;102295.16;10537944;28;20455;-63
2021/06/08 16:40:30;;;;;;;0.10;0.10;;;;;;;23.52;49.08;102287.63;10536572;28;20055;-63
2021/06/08 16:45:30;;;;;;;0.10;0.10;;;;;;;23.44;50.97;102289.50;10495629;28;20031;-64
2021/06/08 16:50:35;;;;;;;0.10;0.10;;;;;;;23.25;52.95;102293.91;10495398;28;20016;-64
2021/06/08 16:55:36;;;;;;;0.10;0.10;;;;;;;23.12;54.55;102291.16;10495795;28;20020;-64
2021/06/08 17:00:36;;;;;;;0.10;0.10;;;;;;;22.97;54.68;102290.50;10494940;28;20035;-64
2021/06/08 17:05:38;;;;;;;0.10;0.10;;;;;;;22.85;53.64;102287.53;10535359;28;20078;-63
2021/06/08 17:10:38;;;;;;;0.10;0.10;;;;;;;22.68;54.05;102275.38;10536117;28;20058;-63
2021/06/08 17:15:39;;;;;;;0.10;0.10;;;;;;;22.55;54.23;102268.84;10533639;28;20051;-63
2021/06/08 17:20:39;;;;;;;0.10;0.10;;;;;;;22.44;54.08;102284.91;10534745;28;20024;-63
2021/06/08 17:25:40;;;;;;;0.10;0.10;;;;;;;22.35;56.09;102281.53;10538474;28;20475;-63
2021/06/08 17:30:41;;;;;;;0.10;0.10;;;;;;;22.24;55.75;102277.50;10538132;28;20032;-63
2021/06/08 17:35:49;;;;;;;0.10;0.10;;;;;;;22.12;54.89;102274.47;10537264;28;20028;-63
2021/06/08 17:40:49;;;;;;;0.10;0.10;;;;;;;22.02;54.92;102282.16;10518689;28;20024;-63
2021/06/08 17:45:50;;;;;;;0.10;0.10;;;;;;;21.88;55.21;102285.84;10537203;28;20467;-62
2021/06/08 17:50:50;;;;;;;0.10;0.10;;;;;;;21.76;56.05;102284.69;10528705;28;20059;-63
2021/06/08 17:55:52;;;;;;;0.10;0.10;;;;;;;21.63;55.43;102280.00;10536733;28;20020;-62
2021/06/08 18:00:53;;;;;;;0.10;0.10;;;;;;;21.51;53.34;102278.88;10535867;28;20103;-63
2021/06/08 18:05:53;;;;;;;0.00;0.00;;;;;;;21.35;54.31;102269.13;10536499;28;20546;-63
2021/06/08 18:10:54;;;;;;;0.10;0.10;;;;;;;21.20;53.69;102278.16;10535859;28;20024;-63
2021/06/08 18:15:55;;;;;;;0.10;0.10;;;;;;;21.02;54.74;102270.50;10535905;28;20027;-63
2021/06/08 18:20:55;;;;;;;0.10;0.10;;;;;;;20.87;56.46;102277.84;10527150;28;20039;-63
2021/06/08 18:25:58;;;;;;;0.10;0.10;;;;;;;20.73;57.16;102266.03;10535271;28;20023;-63
2021/06/08 18:30:59;;;;;;;0.10;0.10;;;;;;;20.59;58.48;102269.63;10516597;28;20105;-63
2021/06/08 18:35:59;;;;;;;0.10;0.10;;;;;;;20.47;58.96;102273.81;10533541;28;20028;-62
2021/06/08 18:40:59;;;;;;;0.10;0.10;;;;;;;20.34;59.58;102280.75;10527861;28;20034;-63
2021/06/08 18:46:00;;;;;;;0.10;0.10;;;;;;;20.22;60.31;102284.97;10535006;28;20019;-62
2021/06/08 18:51:01;;;;;;;0.10;0.10;;;;;;;20.08;60.51;102289.34;10515124;28;20028;-63
2021/06/08 18:56:02;;;;;;;0.10;0.10;;;;;;;19.98;60.72;102301.47;10534450;28;20020;-64
2021/06/08 19:01:02;;;;;;;0.05;0.05;;;;;;;19.87;59.84;102295.50;10534122;28;20028;-62
2021/06/08 19:06:03;;;;;;;0.10;0.10;;;;;;;19.72;59.64;102304.59;10533804;28;20385;-62
2021/06/08 19:11:04;;;;;;;0.10;0.10;;;;;;;19.55;60.26;102307.44;10527488;28;20428;-63
2021/06/08 19:16:04;;;;;;;0.10;0.10;;;;;;;19.41;60.93;102306.38;10534330;28;20377;-62
2021/06/08 19:21:05;;;;;;;0.10;0.10;;;;;;;19.25;61.73;102317.28;10533259;28;20039;-63
2021/06/08 19:26:05;;;;;;;0.10;0.10;;;;;;;19.07;62.61;102314.88;10533751;28;20526;-62
2021/06/08 19:31:06;;;;;;;0.10;0.10;;;;;;;18.90;63.01;102318.72;10515199;28;20024;-62
2021/06/08 19:36:09;;;;;;;0.10;0.10;;;;;;;18.66;62.17;102308.88;10562209;22;20031;-92
2021/06/08 19:41:12;;;;;;;0.05;0.05;;;;;;;18.49;62.33;102314.31;10577654;28;20028;-92
2021/06/08 19:46:13;;;;;;;0.10;0.10;;;;;;;18.30;62.63;102330.94;10565248;28;20016;-91
2021/06/08 19:51:13;;;;;;;0.10;0.10;;;;;;;18.10;63.88;102330.50;10607387;28;20057;-90
2021/06/08 19:56:14;;;;;;;0.10;0.10;;;;;;;17.94;64.38;102334.03;10623283;28;20529;-92
2021/06/08 20:01:14;;;;;;;0.10;0.10;;;;;;;17.81;65.20;102348.06;10603691;28;20031;-91
2021/06/08 20:06:15;;;;;;;0.10;0.10;;;;;;;17.59;65.64;102346.84;10612393;27;20015;-92
2021/06/08 20:11:15;;;;;;;0.10;0.10;;;;;;;17.49;66.49;102354.25;10613275;27;20113;-93
2021/06/08 20:16:41;;;;;;;0.10;0.10;;;;;;;17.25;66.90;102356.91;10612439;27;20022;-91
2021/06/08 20:21:41;;;;;;;0.10;0.10;;;;;;;16.98;67.31;102350.81;10590413;27;20019;-87
2021/06/08 20:26:41;;;;;;;0.10;0.10;;;;;;;16.93;67.94;102370.16;10592444;27;20471;-86
2021/06/08 20:31:41;;;;;;;0.10;0.10;;;;;;;16.81;68.15;102375.97;10591538;27;20507;-86
2021/06/08 20:36:42;;;;;;;0.10;0.10;;;;;;;16.60;68.58;102365.63;10609060;27;20023;-87
2021/06/08 20:41:42;;;;;;;0.10;0.10;;;;;;;16.49;68.73;102374.81;10598288;27;20023;-87
2021/06/08 20:46:43;;;;;;;0.10;0.10;;;;;;;16.34;69.68;102376.41;10628413;27;20368;-87
2021/06/08 20:52:08;;;;;;;0.10;0.10;;;;;;;16.07;71.32;102384.47;10629085;27;20046;-91
2021/06/08 20:57:10;;;;;;;0.10;0.10;;;;;;;15.68;71.41;102375.97;10617635;27;20035;-92
2021/06/08 21:02:10;;;;;;;0.10;0.10;;;;;;;15.38;72.93;102391.41;10586698;28;20019;-92
2021/06/08 21:07:11;;;;;;;0.10;0.10;;;;;;;15.16;74.11;102389.19;10592955;28;20045;-91
2021/06/08 21:12:11;;;;;;;0.10;0.10;;;;;;;15.02;74.55;102400.44;10591360;28;20012;-92
2021/06/08 21:17:12;;;;;;;0.10;0.10;;;;;;;14.97;74.87;102400.03;10594464;27;20071;-91
2021/06/08 21:22:12;;;;;;;0.10;0.10;;;;;;;14.83;74.79;102388.78;10558940;28;20438;-92
2021/06/08 21:27:12;;;;;;;0.10;0.10;;;;;;;14.78;74.10;102407.19;10595548;27;20255;-91
2021/06/08 21:32:13;;;;;;;0.10;0.10;;;;;;;14.72;74.47;102410.47;10585737;27;20047;-92
2021/06/08 21:37:13;;;;;;;0.10;0.10;;;;;;;14.68;73.74;102403.69;10577668;28;20062;-92
2021/06/08 21:42:14;;;;;;;0.07;0.07;;;;;;;14.57;74.07;102395.81;10583219;28;20030;-92
2021/06/08 21:47:15;;;;;;;0.10;0.10;;;;;;;14.54;74.55;102417.56;10575918;28;20277;-91
2021/06/08 21:52:15;;;;;;;0.10;0.10;;;;;;;14.52;73.79;102403.50;10578305;28;20034;-93
2021/06/08 21:57:15;;;;;;;0.10;0.10;;;;;;;14.48;73.24;102402.88;10576589;28;20045;-91
2021/06/08 22:02:16;;;;;;;0.10;0.10;;;;;;;14.46;73.05;102404.88;10587610;27;20019;-92
2021/06/08 22:07:16;;;;;;;0.10;0.10;;;;;;;14.41;72.90;102405.31;10580489;28;20272;-91
2021/06/08 22:12:17;;;;;;;0.10;0.10;;;;;;;14.42;72.38;102412.34;10577527;28;20015;-93
2021/06/08 22:17:18;;;;;;;0.10;0.10;;;;;;;14.30;72.81;102400.13;10572561;28;20361;-93
2021/06/08 22:22:19;;;;;;;0.10;0.10;;;;;;;14.21;73.16;102401.00;10559983;28;20145;-92
2021/06/08 22:27:20;;;;;;;0.13;0.13;;;;;;;14.12;72.73;102401.88;10567696;28;20024;-92
2021/06/08 22:32:20;;;;;;;0.10;0.10;;;;;;;13.96;73.49;102397.94;10593492;27;20023;-92
2021/06/08 22:37:23;;;;;;;0.10;0.10;;;;;;;13.80;76.13;102395.00;10578159;28;20055;-93
2021/06/08 22:42:32;;;;;;;0.10;0.10;;;;;;;13.67;74.96;102397.97;10568843;28;20424;-92
2021/06/08 22:47:33;;;;;;;0.10;0.10;;;;;;;13.54;76.10;102386.69;10575097;28;20019;-93
2021/06/08 22:52:33;;;;;;;0.10;0.10;;;;;;;13.41;77.72;102392.31;10571194;28;20024;-91
2021/06/08 22:57:34;;;;;;;0.10;0.10;;;;;;;13.18;78.68;102393.50;10573779;28;20077;-91
2021/06/08 23:02:35;;;;;;;0.10;0.10;;;;;;;13.06;78.56;102388.28;10598299;27;20065;-92
2021/06/08 23:07:35;;;;;;;0.17;0.17;;;;;;;12.94;79.22;102386.69;10575194;28;20030;-92
2021/06/08 23:12:35;;;;;;;0.10;0.10;;;;;;;12.81;79.79;102378.09;10591680;28;20027;-92
2021/06/08 23:17:37;;;;;;;0.10;0.10;;;;;;;12.65;79.77;102381.25;10572807;28;20277;-92
2021/06/08 23:22:38;;;;;;;0.10;0.10;;;;;;;12.62;80.54;102381.50;10578676;28;20016;-93